createdAt,value
2019-04-24T00:00:26.431Z,0.00
2019-04-24T00:01:08.300Z,0.00
2019-04-24T00:02:39.283Z,0.00
2019-04-24T00:03:18.132Z,0.00
2019-04-24T00:04:19.049Z,0.00
2019-04-24T00:05:29.025Z,0.00
2019-04-24T00:06:12.488Z,0.00
2019-04-24T00:07:16.987Z,0.00
2019-04-24T00:09:07.839Z,0.00
2019-04-24T00:10:11.689Z,0.00
2019-04-24T00:12:10.406Z,0.00
2019-04-24T00:13:17.167Z,0.00
2019-04-24T00:15:27.652Z,0.00
2019-04-24T00:16:08.699Z,0.00
2019-04-24T00:17:10.964Z,0.00
2019-04-24T00:21:11.276Z,0.00
2019-04-24T00:22:08.869Z,0.00
2019-04-24T00:23:12.415Z,0.00
2019-04-24T00:24:14.411Z,0.00
2019-04-24T00:25:09.066Z,0.00
2019-04-24T00:26:14.658Z,0.00
2019-04-24T00:27:13.953Z,0.00
2019-04-24T00:28:16.396Z,0.00
2019-04-24T00:30:01.896Z,0.00
2019-04-24T00:33:15.227Z,0.00
2019-04-24T00:34:16.398Z,0.00
2019-04-24T00:35:20.174Z,0.00
2019-04-24T00:36:27.517Z,0.00
2019-04-24T00:37:19.838Z,0.00
2019-04-24T00:38:12.525Z,0.00
2019-04-24T00:39:52.783Z,0.00
2019-04-24T00:42:09.793Z,0.00
2019-04-24T00:44:06.377Z,0.00
2019-04-24T00:46:19.637Z,0.00
2019-04-24T00:47:11.755Z,0.00
2019-04-24T00:49:18.293Z,0.00
2019-04-24T00:50:05.957Z,0.00
2019-04-24T00:51:17.863Z,0.00
2019-04-24T00:52:04.120Z,0.00
2019-04-24T00:54:09.363Z,0.00
2019-04-24T00:56:13.934Z,0.00
2019-04-24T00:57:06.805Z,0.00
2019-04-24T00:59:17.905Z,0.00
2019-04-24T01:00:04.269Z,0.00
2019-04-24T01:01:22.619Z,0.00
2019-04-24T01:02:13.205Z,0.00
2019-04-24T01:04:26.620Z,0.00
2019-04-24T01:07:20.037Z,0.00
2019-04-24T01:08:06.612Z,0.00
2019-04-24T01:09:14.971Z,0.00
2019-04-24T01:10:18.587Z,0.00
2019-04-24T01:12:11.708Z,0.00
2019-04-24T01:13:13.013Z,0.00
2019-04-24T01:14:12.535Z,0.00
2019-04-24T01:15:17.674Z,0.00
2019-04-24T01:16:15.944Z,0.00
2019-04-24T01:17:14.141Z,0.00
2019-04-24T01:17:55.820Z,0.00
2019-04-24T01:19:04.798Z,0.00
2019-04-24T01:20:24.210Z,0.00
2019-04-24T01:21:07.290Z,0.00
2019-04-24T01:22:19.433Z,0.00
2019-04-24T01:23:08.300Z,0.00
2019-04-24T01:25:23.282Z,0.00
2019-04-24T01:27:10.397Z,0.00
2019-04-24T01:28:08.682Z,0.00
2019-04-24T01:29:17.098Z,0.00
2019-04-24T01:30:23.431Z,0.00
2019-04-24T01:32:09.311Z,0.00
2019-04-24T01:33:16.337Z,0.00
2019-04-24T01:34:10.624Z,0.00
2019-04-24T01:35:12.517Z,0.00
2019-04-24T01:36:17.971Z,0.00
2019-04-24T01:37:06.862Z,0.00
2019-04-24T01:38:11.076Z,0.00
2019-04-24T01:40:11.813Z,0.00
2019-04-24T01:41:07.262Z,0.00
2019-04-24T01:42:16.452Z,0.00
2019-04-24T01:43:10.208Z,0.00
2019-04-24T01:44:09.385Z,0.00
2019-04-24T01:45:16.554Z,0.00
2019-04-24T01:46:08.378Z,0.00
2019-04-24T01:47:16.619Z,0.00
2019-04-24T01:49:11.569Z,0.00
2019-04-24T01:51:07.906Z,0.00
2019-04-24T01:53:05.762Z,0.00
2019-04-24T01:54:12.447Z,0.00
2019-04-24T01:55:07.528Z,0.00
2019-04-24T01:56:08.893Z,0.00
2019-04-24T01:57:20.947Z,0.00
2019-04-24T01:58:06.910Z,0.00
2019-04-24T01:59:11.774Z,0.00
2019-04-24T02:00:28.882Z,0.00
2019-04-24T02:01:11.050Z,0.00
2019-04-24T02:02:17.469Z,0.00
2019-04-24T02:02:59.402Z,0.00
2019-04-24T02:04:03.540Z,0.00
2019-04-24T02:05:09.756Z,0.00
2019-04-24T02:06:11.743Z,0.00
2019-04-24T02:07:11.119Z,0.00
2019-04-24T02:08:15.169Z,0.00
2019-04-24T02:09:06.813Z,0.00
2019-04-24T02:10:26.369Z,0.00
2019-04-24T02:11:34.045Z,0.00
2019-04-24T02:12:04.951Z,0.00
2019-04-24T02:13:24.033Z,0.00
2019-04-24T02:14:10.059Z,0.00
2019-04-24T02:16:00.433Z,0.00
2019-04-24T02:17:10.406Z,0.00
2019-04-24T02:18:11.540Z,0.00
2019-04-24T02:19:00.907Z,0.00
2019-04-24T02:20:15.017Z,0.00
2019-04-24T02:21:09.794Z,0.00
2019-04-24T02:22:26.121Z,0.00
2019-04-24T02:24:10.076Z,0.00
2019-04-24T02:25:22.737Z,0.00
2019-04-24T02:26:12.446Z,0.00
2019-04-24T02:27:02.256Z,0.00
2019-04-24T02:28:16.923Z,0.00
2019-04-24T02:30:08.954Z,0.00
2019-04-24T02:31:17.817Z,0.00
2019-04-24T02:32:29.870Z,0.00
2019-04-24T02:33:32.804Z,0.00
2019-04-24T02:34:08.488Z,0.00
2019-04-24T02:36:35.949Z,0.00
2019-04-24T02:37:26.728Z,0.00
2019-04-24T02:40:28.504Z,0.00
2019-04-24T02:41:35.227Z,0.00
2019-04-24T02:42:23.761Z,0.00
2019-04-24T02:45:21.492Z,0.00
2019-04-24T02:47:05.828Z,0.00
2019-04-24T02:48:17.844Z,0.00
2019-04-24T02:51:16.320Z,0.00
2019-04-24T02:53:12.938Z,0.00
2019-04-24T02:55:13.570Z,0.00
2019-04-24T02:56:17.271Z,0.00
2019-04-24T02:58:13.543Z,0.00
2019-04-24T03:00:12.194Z,0.00
2019-04-24T03:01:06.691Z,0.00
2019-04-24T03:02:19.970Z,0.00
2019-04-24T03:03:17.353Z,0.00
2019-04-24T03:04:12.604Z,0.00
2019-04-24T03:05:27.918Z,0.00
2019-04-24T03:07:14.321Z,0.00
2019-04-24T03:11:16.437Z,0.00
2019-04-24T03:16:30.464Z,0.00
2019-04-24T03:17:22.870Z,0.00
2019-04-24T03:18:10.283Z,0.00
2019-04-24T03:20:12.526Z,0.00
2019-04-24T03:21:38.927Z,0.00
2019-04-24T03:24:21.307Z,0.00
2019-04-24T03:25:47.460Z,0.00
2019-04-24T03:30:24.140Z,0.00
2019-04-24T03:32:51.248Z,0.00
2019-04-24T03:35:32.421Z,0.00
2019-04-24T03:38:42.868Z,0.00
2019-04-24T03:39:34.110Z,0.00
2019-04-24T03:44:37.749Z,5.63
2019-04-24T03:47:06.864Z,5.63
2019-04-24T03:49:17.622Z,11.25
2019-04-24T03:50:26.195Z,11.25
2019-04-24T03:53:42.612Z,11.25
2019-04-24T03:57:09.408Z,22.50
2019-04-24T03:58:20.310Z,22.50
2019-04-24T03:59:11.004Z,22.50
2019-04-24T04:04:12.865Z,39.38
2019-04-24T04:06:00.705Z,45.00
2019-04-24T04:08:15.836Z,50.63
2019-04-24T04:09:12.207Z,50.63
2019-04-24T04:11:12.268Z,56.25
2019-04-24T04:13:29.854Z,56.25
2019-04-24T04:14:01.565Z,67.50
2019-04-24T04:15:16.248Z,61.88
2019-04-24T04:17:09.026Z,67.50
2019-04-24T04:18:37.205Z,73.13
2019-04-24T04:20:24.685Z,78.75
2019-04-24T04:22:33.851Z,84.38
2019-04-24T04:24:33.165Z,90.00
2019-04-24T04:29:35.304Z,101.25
2019-04-24T04:30:10.188Z,101.25
2019-04-24T04:32:01.354Z,112.50
2019-04-24T04:33:14.366Z,112.50
2019-04-24T04:34:14.780Z,118.13
2019-04-24T04:35:02.292Z,123.75
2019-04-24T04:38:13.100Z,135.00
2019-04-24T04:40:09.267Z,146.25
2019-04-24T04:41:58.914Z,151.88
2019-04-24T04:43:08.365Z,157.50
2019-04-24T04:45:11.358Z,168.75
2019-04-24T04:47:12.553Z,185.63
2019-04-24T04:47:57.640Z,191.25
2019-04-24T04:49:18.806Z,196.88
2019-04-24T04:52:31.429Z,213.75
2019-04-24T04:53:35.155Z,213.75
2019-04-24T04:54:06.885Z,219.38
2019-04-24T04:57:14.062Z,225.00
2019-04-24T04:58:19.502Z,230.63
2019-04-24T05:05:36.173Z,202.50
2019-04-24T05:06:57.205Z,196.88
2019-04-24T05:08:15.453Z,185.63
2019-04-24T05:11:04.360Z,168.75
2019-04-24T05:13:02.082Z,163.13
2019-04-24T05:16:16.623Z,163.13
2019-04-24T05:18:12.254Z,163.13
2019-04-24T05:19:47.684Z,163.13
2019-04-24T05:22:16.494Z,168.75
2019-04-24T05:22:59.031Z,168.75
2019-04-24T05:25:11.886Z,174.38
2019-04-24T05:26:21.006Z,174.38
2019-04-24T05:28:03.105Z,185.63
2019-04-24T05:31:11.478Z,196.88
2019-04-24T05:34:03.746Z,202.50
2019-04-24T05:35:55.235Z,202.50
2019-04-24T05:37:01.807Z,208.13
2019-04-24T05:39:58.775Z,219.38
2019-04-24T05:40:49.239Z,230.63
2019-04-24T05:42:06.483Z,241.88
2019-04-24T05:43:58.607Z,264.38
2019-04-24T05:46:55.890Z,292.50
2019-04-24T05:48:58.708Z,303.75
2019-04-24T05:50:58.020Z,320.63
2019-04-24T05:51:54.572Z,326.25
2019-04-24T05:54:53.357Z,343.13
2019-04-24T05:57:09.599Z,348.75
2019-04-24T05:58:14.315Z,348.75
2019-04-24T05:59:05.442Z,348.75
2019-04-24T05:59:57.473Z,348.75
2019-04-24T06:01:01.194Z,348.75
2019-04-24T06:02:20.237Z,348.75
2019-04-24T06:02:56.925Z,354.38
2019-04-24T06:06:12.002Z,371.25
2019-04-24T06:07:00.504Z,382.50
2019-04-24T06:08:07.040Z,382.50
2019-04-24T06:08:58.710Z,388.13
2019-04-24T06:10:03.148Z,393.75
2019-04-24T06:11:58.296Z,399.38
2019-04-24T06:13:04.537Z,405.00
2019-04-24T06:13:50.395Z,410.63
2019-04-24T06:15:59.183Z,416.25
2019-04-24T06:16:58.210Z,410.63
2019-04-24T06:19:05.685Z,410.63
2019-04-24T06:20:01.872Z,416.25
2019-04-24T06:21:01.961Z,416.25
2019-04-24T06:22:01.804Z,416.25
2019-04-24T06:23:00.454Z,421.88
2019-04-24T06:25:25.860Z,421.88
2019-04-24T06:26:15.914Z,427.50
2019-04-24T06:27:03.800Z,433.13
2019-04-24T06:27:57.401Z,438.75
2019-04-24T06:33:12.012Z,483.75
2019-04-24T06:34:19.977Z,483.75
2019-04-24T06:36:19.548Z,489.38
2019-04-24T06:38:24.748Z,500.63
2019-04-24T06:39:28.748Z,506.25
2019-04-24T06:44:42.801Z,528.75
2019-04-24T06:45:21.091Z,528.75
2019-04-24T06:46:16.441Z,523.13
2019-04-24T06:47:49.641Z,506.25
2019-04-24T06:48:12.457Z,495.00
2019-04-24T06:50:28.985Z,489.38
2019-04-24T06:51:16.214Z,489.38
2019-04-24T06:53:03.828Z,478.13
2019-04-24T06:54:23.401Z,466.88
2019-04-24T06:55:13.482Z,455.63
2019-04-24T06:58:11.757Z,450.00
2019-04-24T06:59:20.483Z,450.00
2019-04-24T07:00:28.239Z,461.25
2019-04-24T07:01:16.791Z,461.25
2019-04-24T07:02:11.391Z,466.88
2019-04-24T07:03:14.402Z,472.50
2019-04-24T07:04:37.603Z,478.13
2019-04-24T07:05:30.930Z,478.13
2019-04-24T07:06:22.483Z,472.50
2019-04-24T07:07:33.785Z,472.50
2019-04-24T07:07:59.666Z,466.88
2019-04-24T07:09:30.636Z,461.25
2019-04-24T07:10:33.650Z,455.63
2019-04-24T07:11:18.471Z,450.00
2019-04-24T07:13:49.234Z,438.75
2019-04-24T07:15:19.649Z,433.13
2019-04-24T07:17:07.187Z,433.13
2019-04-24T07:19:07.711Z,427.50
2019-04-24T07:20:27.176Z,421.88
2019-04-24T07:21:12.330Z,421.88
2019-04-24T07:23:26.178Z,416.25
2019-04-24T07:24:18.480Z,416.25
2019-04-24T07:25:21.134Z,416.25
2019-04-24T07:26:13.877Z,421.88
2019-04-24T07:27:33.710Z,416.25
2019-04-24T07:30:19.798Z,410.63
2019-04-24T07:31:35.602Z,410.63
2019-04-24T07:32:15.638Z,393.75
2019-04-24T07:36:17.602Z,399.38
2019-04-24T07:37:27.200Z,405.00
2019-04-24T07:38:19.252Z,405.00
2019-04-24T07:39:23.580Z,405.00
2019-04-24T07:40:08.692Z,405.00
2019-04-24T07:41:19.113Z,405.00
2019-04-24T07:42:14.517Z,405.00
2019-04-24T07:44:13.340Z,405.00
2019-04-24T07:45:28.690Z,405.00
2019-04-24T07:46:18.750Z,405.00
2019-04-24T07:47:14.793Z,405.00
2019-04-24T07:48:22.508Z,399.38
2019-04-24T07:50:19.775Z,393.75
2019-04-24T07:51:31.086Z,399.38
2019-04-24T07:53:42.875Z,388.13
2019-04-24T07:55:17.915Z,388.13
2019-04-24T07:56:20.001Z,382.50
2019-04-24T07:58:17.442Z,382.50
2019-04-24T07:59:36.699Z,382.50
2019-04-24T08:01:30.439Z,382.50
2019-04-24T08:02:19.031Z,382.50
2019-04-24T08:03:24.664Z,388.13
2019-04-24T08:04:29.637Z,388.13
2019-04-24T08:05:08.283Z,388.13
2019-04-24T08:06:29.405Z,388.13
2019-04-24T08:07:28.663Z,388.13
2019-04-24T08:08:10.590Z,388.13
2019-04-24T08:09:28.181Z,388.13
2019-04-24T08:10:27.855Z,388.13
2019-04-24T08:11:07.920Z,388.13
2019-04-24T08:12:16.603Z,388.13
2019-04-24T08:14:31.029Z,388.13
2019-04-24T08:17:31.387Z,388.13
2019-04-24T08:19:22.281Z,388.13
2019-04-24T08:20:18.960Z,388.13
2019-04-24T08:21:01.375Z,382.50
2019-04-24T08:22:33.096Z,371.25
2019-04-24T08:23:17.783Z,376.88
2019-04-24T08:24:35.160Z,388.13
2019-04-24T08:25:18.961Z,388.13
2019-04-24T08:28:11.272Z,388.13
2019-04-24T08:29:07.745Z,388.13
2019-04-24T08:31:21.128Z,388.13
2019-04-24T08:32:21.613Z,382.50
2019-04-24T08:33:29.405Z,376.88
2019-04-24T08:35:25.251Z,371.25
2019-04-24T08:36:06.627Z,365.63
2019-04-24T08:37:21.631Z,365.63
2019-04-24T08:38:18.905Z,365.63
2019-04-24T08:39:29.481Z,365.63
2019-04-24T08:40:16.846Z,365.63
2019-04-24T08:41:22.015Z,371.25
2019-04-24T08:44:15.801Z,376.88
2019-04-24T08:46:18.925Z,382.50
2019-04-24T08:47:12.449Z,382.50
2019-04-24T08:48:20.796Z,382.50
2019-04-24T08:50:33.797Z,382.50
2019-04-24T08:51:21.421Z,388.13
2019-04-24T08:52:44.774Z,382.50
2019-04-24T08:53:30.958Z,382.50
2019-04-24T08:55:19.472Z,382.50
2019-04-24T08:56:08.901Z,382.50
2019-04-24T08:57:15.352Z,376.88
2019-04-24T08:59:22.057Z,371.25
2019-04-24T09:01:19.070Z,365.63
2019-04-24T09:02:08.443Z,365.63
2019-04-24T09:04:15.835Z,365.63
2019-04-24T09:05:02.973Z,365.63
2019-04-24T09:06:03.749Z,365.63
2019-04-24T09:07:08.360Z,365.63
2019-04-24T09:08:19.992Z,365.63
2019-04-24T09:09:26.188Z,365.63
2019-04-24T09:10:36.037Z,365.63
2019-04-24T09:12:21.348Z,365.63
2019-04-24T09:15:23.024Z,365.63
2019-04-24T09:16:28.900Z,360.00
2019-04-24T09:17:12.492Z,360.00
2019-04-24T09:18:15.208Z,371.25
2019-04-24T09:20:23.432Z,360.00
2019-04-24T09:21:15.737Z,360.00
2019-04-24T09:22:12.600Z,360.00
2019-04-24T09:23:21.907Z,360.00
2019-04-24T09:25:18.013Z,365.63
2019-04-24T09:26:45.303Z,365.63
2019-04-24T09:27:21.748Z,365.63
2019-04-24T09:28:15.591Z,365.63
2019-04-24T09:29:43.342Z,365.63
2019-04-24T09:30:20.182Z,365.63
2019-04-24T09:31:12.645Z,360.00
2019-04-24T09:33:16.583Z,360.00
2019-04-24T09:35:15.270Z,360.00
2019-04-24T09:36:37.435Z,360.00
2019-04-24T09:37:07.137Z,360.00
2019-04-24T09:39:15.451Z,360.00
2019-04-24T09:40:37.911Z,360.00
2019-04-24T09:43:27.859Z,354.38
2019-04-24T09:44:24.573Z,348.75
2019-04-24T09:45:15.035Z,343.13
2019-04-24T09:46:09.647Z,337.50
2019-04-24T09:47:12.801Z,343.13
2019-04-24T09:48:17.133Z,343.13
2019-04-24T09:50:21.287Z,348.75
2019-04-24T09:52:21.397Z,348.75
2019-04-24T09:53:34.985Z,343.13
2019-04-24T09:55:15.709Z,354.38
2019-04-24T09:56:03.688Z,365.63
2019-04-24T09:58:14.409Z,371.25
2019-04-24T09:59:15.721Z,371.25
2019-04-24T10:00:04.807Z,371.25
2019-04-24T10:01:25.341Z,376.88
2019-04-24T10:02:17.681Z,376.88
2019-04-24T10:03:18.853Z,382.50
2019-04-24T10:04:28.226Z,382.50
2019-04-24T10:07:21.643Z,388.13
2019-04-24T10:08:12.639Z,393.75
2019-04-24T10:09:10.373Z,393.75
2019-04-24T10:10:32.925Z,393.75
2019-04-24T10:11:22.025Z,393.75
2019-04-24T10:13:08.083Z,393.75
2019-04-24T10:14:10.132Z,393.75
2019-04-24T10:15:05.876Z,393.75
2019-04-24T10:16:10.621Z,393.75
2019-04-24T10:19:25.155Z,393.75
2019-04-24T10:20:22.437Z,399.38
2019-04-24T10:21:05.299Z,399.38
2019-04-24T10:22:04.768Z,399.38
2019-04-24T10:24:06.735Z,399.38
2019-04-24T10:25:12.216Z,399.38
2019-04-24T10:26:07.084Z,399.38
2019-04-24T10:27:13.933Z,399.38
2019-04-24T10:29:24.462Z,393.75
2019-04-24T10:30:07.873Z,399.38
2019-04-24T10:31:09.837Z,393.75
2019-04-24T10:34:05.878Z,388.13
2019-04-24T10:35:10.770Z,388.13
2019-04-24T10:36:04.517Z,388.13
2019-04-24T10:37:12.458Z,388.13
2019-04-24T10:39:16.759Z,388.13
2019-04-24T10:40:18.418Z,382.50
2019-04-24T10:41:09.933Z,382.50
2019-04-24T10:42:05.049Z,382.50
2019-04-24T10:43:04.292Z,388.13
2019-04-24T10:44:13.232Z,393.75
2019-04-24T10:45:12.070Z,388.13
2019-04-24T10:46:08.566Z,388.13
2019-04-24T10:47:23.444Z,382.50
2019-04-24T10:48:06.440Z,382.50
2019-04-24T10:49:13.558Z,376.88
2019-04-24T10:50:27.905Z,388.13
2019-04-24T10:51:35.830Z,382.50
2019-04-24T10:52:05.378Z,393.75
2019-04-24T10:54:02.584Z,393.75
2019-04-24T10:55:11.672Z,399.38
2019-04-24T10:56:26.461Z,410.63
2019-04-24T10:58:05.394Z,416.25
2019-04-24T10:59:03.412Z,421.88
2019-04-24T11:00:06.028Z,427.50
2019-04-24T11:01:20.171Z,433.13
2019-04-24T11:03:44.966Z,444.38
2019-04-24T11:04:05.336Z,455.63
2019-04-24T11:05:33.875Z,472.50
2019-04-24T11:06:04.291Z,472.50
2019-04-24T11:07:19.618Z,478.13
2019-04-24T11:09:33.760Z,478.13
2019-04-24T11:11:11.070Z,483.75
2019-04-24T11:12:12.768Z,483.75
2019-04-24T11:14:13.815Z,466.88
2019-04-24T11:15:12.337Z,455.63
2019-04-24T11:16:19.284Z,450.00
2019-04-24T11:18:09.425Z,438.75
2019-04-24T11:20:08.037Z,433.13
2019-04-24T11:21:37.669Z,433.13
2019-04-24T11:22:25.410Z,450.00
2019-04-24T11:23:13.732Z,461.25
2019-04-24T11:24:20.192Z,455.63
2019-04-24T11:27:20.968Z,461.25
2019-04-24T11:28:25.964Z,472.50
2019-04-24T11:29:23.204Z,478.13
2019-04-24T11:30:13.839Z,489.38
2019-04-24T11:31:11.789Z,506.25
2019-04-24T11:32:19.592Z,511.88
2019-04-24T11:33:21.816Z,517.50
2019-04-24T11:36:48.318Z,528.75
2019-04-24T11:38:12.186Z,523.13
2019-04-24T11:39:18.090Z,517.50
2019-04-24T11:40:30.374Z,511.88
2019-04-24T11:41:09.054Z,511.88
2019-04-24T11:42:04.810Z,506.25
2019-04-24T11:43:24.974Z,506.25
2019-04-24T11:44:14.532Z,500.63
2019-04-24T11:46:22.560Z,500.63
2019-04-24T11:46:29.703Z,500.63
2019-04-24T11:48:12.092Z,495.00
2019-04-24T11:49:15.094Z,495.00
2019-04-24T11:50:15.908Z,495.00
2019-04-24T11:53:14.508Z,489.38
2019-04-24T11:54:03.403Z,483.75
2019-04-24T11:55:15.606Z,478.13
2019-04-24T11:56:04.305Z,478.13
2019-04-24T11:57:21.261Z,472.50
2019-04-24T11:58:22.075Z,466.88
2019-04-24T11:58:48.346Z,461.25
2019-04-24T11:59:50.242Z,450.00
2019-04-24T12:00:59.518Z,444.38
2019-04-24T12:02:57.735Z,427.50
2019-04-24T12:04:16.349Z,421.88
2019-04-24T12:05:16.012Z,416.25
2019-04-24T12:06:06.372Z,410.63
2019-04-24T12:07:09.995Z,405.00
2019-04-24T12:08:07.028Z,399.38
2019-04-24T12:11:18.576Z,388.13
2019-04-24T12:12:00.356Z,388.13
2019-04-24T12:13:09.971Z,382.50
2019-04-24T12:15:05.181Z,393.75
2019-04-24T12:16:53.343Z,382.50
2019-04-24T12:18:08.507Z,382.50
2019-04-24T12:19:05.927Z,382.50
2019-04-24T12:21:16.161Z,376.88
2019-04-24T12:23:10.181Z,371.25
2019-04-24T12:24:07.050Z,371.25
2019-04-24T12:25:02.724Z,371.25
2019-04-24T12:26:15.221Z,371.25
2019-04-24T12:26:53.040Z,371.25
2019-04-24T12:28:08.183Z,365.63
2019-04-24T12:29:10.527Z,365.63
2019-04-24T12:30:00.247Z,365.63
2019-04-24T12:30:56.103Z,360.00
2019-04-24T12:32:06.837Z,360.00
2019-04-24T12:33:54.817Z,354.38
2019-04-24T12:35:01.938Z,354.38
2019-04-24T12:36:05.960Z,354.38
2019-04-24T12:37:04.975Z,354.38
2019-04-24T12:39:03.293Z,360.00
2019-04-24T12:40:07.228Z,354.38
2019-04-24T12:41:05.671Z,348.75
2019-04-24T12:42:04.076Z,354.38
2019-04-24T12:43:08.377Z,348.75
2019-04-24T12:44:12.341Z,348.75
2019-04-24T12:45:03.595Z,348.75
2019-04-24T12:46:25.290Z,348.75
2019-04-24T12:48:03.975Z,348.75
2019-04-24T12:49:03.782Z,348.75
2019-04-24T12:50:17.657Z,348.75
2019-04-24T12:53:08.525Z,348.75
2019-04-24T12:54:21.546Z,348.75
2019-04-24T12:56:27.541Z,354.38
2019-04-24T12:57:12.068Z,354.38
2019-04-24T12:59:07.348Z,354.38
2019-04-24T12:59:58.619Z,348.75
2019-04-24T13:01:20.513Z,348.75
2019-04-24T13:03:06.791Z,354.38
2019-04-24T13:06:57.898Z,348.75
2019-04-24T13:08:11.364Z,348.75
2019-04-24T13:10:11.694Z,348.75
2019-04-24T13:11:10.678Z,348.75
2019-04-24T13:12:17.595Z,348.75
2019-04-24T13:13:24.829Z,348.75
2019-04-24T13:14:16.623Z,348.75
2019-04-24T13:16:05.339Z,354.38
2019-04-24T13:19:37.158Z,360.00
2019-04-24T13:20:41.629Z,360.00
2019-04-24T13:21:45.475Z,365.63
2019-04-24T13:22:44.962Z,376.88
2019-04-24T13:23:51.946Z,371.25
2019-04-24T13:24:55.348Z,371.25
2019-04-24T13:27:12.740Z,365.63
2019-04-24T13:28:23.904Z,365.63
2019-04-24T13:29:15.626Z,365.63
2019-04-24T13:30:10.429Z,360.00
2019-04-24T13:32:11.914Z,360.00
2019-04-24T13:33:14.530Z,360.00
2019-04-24T13:34:16.786Z,360.00
2019-04-24T13:35:11.839Z,360.00
2019-04-24T13:39:04.027Z,365.63
2019-04-24T13:40:07.489Z,365.63
2019-04-24T13:41:00.055Z,371.25
2019-04-24T13:42:11.190Z,371.25
2019-04-24T13:43:15.074Z,365.63
2019-04-24T13:44:10.361Z,365.63
2019-04-24T13:45:11.446Z,365.63
2019-04-24T13:46:03.557Z,365.63
2019-04-24T13:47:06.047Z,360.00
2019-04-24T13:48:17.676Z,360.00
2019-04-24T13:49:06.599Z,360.00
2019-04-24T13:50:10.954Z,360.00
2019-04-24T13:51:05.072Z,365.63
2019-04-24T13:52:51.302Z,360.00
2019-04-24T13:53:32.392Z,360.00
2019-04-24T13:54:13.567Z,360.00
2019-04-24T13:55:58.222Z,360.00
2019-04-24T13:57:10.917Z,365.63
2019-04-24T13:58:16.058Z,365.63
2019-04-24T13:59:06.279Z,365.63
2019-04-24T14:00:13.955Z,365.63
2019-04-24T14:02:02.566Z,371.25
2019-04-24T14:03:24.630Z,371.25
2019-04-24T14:04:11.997Z,371.25
2019-04-24T14:05:11.285Z,371.25
2019-04-24T14:06:25.056Z,371.25
2019-04-24T14:07:11.525Z,371.25
2019-04-24T14:08:24.187Z,365.63
2019-04-24T14:09:26.403Z,371.25
2019-04-24T14:11:31.022Z,371.25
2019-04-24T14:13:00.503Z,365.63
2019-04-24T14:15:26.663Z,365.63
2019-04-24T14:17:01.993Z,365.63
2019-04-24T14:18:13.466Z,365.63
2019-04-24T14:19:16.924Z,365.63
2019-04-24T14:21:03.087Z,360.00
2019-04-24T14:22:00.717Z,360.00
2019-04-24T14:23:11.719Z,354.38
2019-04-24T14:27:07.194Z,360.00
2019-04-24T14:28:19.782Z,360.00
2019-04-24T14:29:21.871Z,354.38
2019-04-24T14:30:03.641Z,360.00
2019-04-24T14:31:11.885Z,354.38
2019-04-24T14:33:13.471Z,360.00
2019-04-24T14:34:17.194Z,360.00
2019-04-24T14:35:18.715Z,360.00
2019-04-24T14:36:13.902Z,360.00
2019-04-24T14:38:20.799Z,365.63
2019-04-24T14:40:21.793Z,371.25
2019-04-24T14:41:20.651Z,371.25
2019-04-24T14:42:14.958Z,376.88
2019-04-24T14:43:17.259Z,376.88
2019-04-24T14:47:13.409Z,376.88
2019-04-24T14:48:05.898Z,371.25
2019-04-24T14:49:12.176Z,371.25
2019-04-24T14:50:16.116Z,371.25
2019-04-24T14:51:04.876Z,371.25
2019-04-24T14:52:15.012Z,371.25
2019-04-24T14:52:56.991Z,371.25
2019-04-24T14:56:09.165Z,371.25
2019-04-24T14:57:08.274Z,371.25
2019-04-24T14:59:11.296Z,365.63
2019-04-24T15:00:11.217Z,365.63
2019-04-24T15:01:14.702Z,365.63
2019-04-24T15:02:11.498Z,365.63
2019-04-24T15:03:14.174Z,365.63
2019-04-24T15:04:08.904Z,365.63
2019-04-24T15:06:19.976Z,376.88
2019-04-24T15:07:11.372Z,371.25
2019-04-24T15:09:08.395Z,382.50
2019-04-24T15:10:08.000Z,376.88
2019-04-24T15:11:04.402Z,376.88
2019-04-24T15:13:12.995Z,376.88
2019-04-24T15:14:15.155Z,376.88
2019-04-24T15:16:30.562Z,382.50
2019-04-24T15:17:11.701Z,376.88
2019-04-24T15:18:05.850Z,376.88
2019-04-24T15:19:12.944Z,382.50
2019-04-24T15:21:07.391Z,376.88
2019-04-24T15:22:13.636Z,376.88
2019-04-24T15:25:26.116Z,376.88
2019-04-24T15:26:12.689Z,376.88
2019-04-24T15:27:06.837Z,376.88
2019-04-24T15:28:10.555Z,376.88
2019-04-24T15:29:19.907Z,376.88
2019-04-24T15:30:07.363Z,376.88
2019-04-24T15:31:03.574Z,376.88
2019-04-24T15:32:22.026Z,376.88
2019-04-24T15:33:03.233Z,371.25
2019-04-24T15:35:27.215Z,365.63
2019-04-24T15:36:10.397Z,365.63
2019-04-24T15:37:11.871Z,365.63
2019-04-24T15:38:02.573Z,365.63
2019-04-24T15:39:04.071Z,365.63
2019-04-24T15:40:30.963Z,360.00
2019-04-24T15:41:17.032Z,360.00
2019-04-24T15:42:16.357Z,360.00
2019-04-24T15:43:15.894Z,360.00
2019-04-24T15:44:04.802Z,360.00
2019-04-24T15:45:12.291Z,354.38
2019-04-24T15:47:24.307Z,354.38
2019-04-24T15:49:04.030Z,354.38
2019-04-24T15:50:12.579Z,354.38
2019-04-24T15:51:23.001Z,354.38
2019-04-24T15:51:35.451Z,354.38
2019-04-24T15:52:33.821Z,348.75
2019-04-24T15:53:33.800Z,348.75
2019-04-24T15:54:33.815Z,354.38
2019-04-24T15:55:33.764Z,348.75
2019-04-24T15:56:33.739Z,343.13
2019-04-24T15:57:35.387Z,343.13
2019-04-24T15:58:46.274Z,343.13
2019-04-24T16:00:04.637Z,343.13
2019-04-24T16:01:18.469Z,343.13
2019-04-24T16:02:04.368Z,343.13
2019-04-24T16:03:10.760Z,343.13
2019-04-24T16:04:17.809Z,343.13
2019-04-24T16:04:53.910Z,343.13
2019-04-24T16:05:33.555Z,343.13
2019-04-24T16:06:33.538Z,343.13
2019-04-24T16:07:33.511Z,343.13
2019-04-24T16:08:33.501Z,343.13
2019-04-24T16:09:33.506Z,343.13
2019-04-24T16:10:33.458Z,343.13
2019-04-24T16:11:33.442Z,343.13
2019-04-24T16:12:33.430Z,343.13
2019-04-24T16:13:39.855Z,343.13
2019-04-24T16:14:58.285Z,343.13
2019-04-24T16:16:17.723Z,343.13
2019-04-24T16:17:01.441Z,343.13
2019-04-24T16:20:12.221Z,337.50
2019-04-24T16:21:10.385Z,337.50
2019-04-24T16:22:00.064Z,337.50
2019-04-24T16:22:59.704Z,337.50
2019-04-24T16:24:28.986Z,337.50
2019-04-24T16:25:06.215Z,331.88
2019-04-24T16:25:56.807Z,331.88
2019-04-24T16:27:14.314Z,337.50
2019-04-24T16:28:09.655Z,331.88
2019-04-24T16:29:10.624Z,331.88
2019-04-24T16:30:09.016Z,331.88
2019-04-24T16:31:08.265Z,331.88
2019-04-24T16:32:37.033Z,326.25
2019-04-24T16:34:00.051Z,326.25
2019-04-24T16:38:08.920Z,331.88
2019-04-24T16:39:04.448Z,331.88
2019-04-24T16:40:31.174Z,331.88
2019-04-24T16:41:10.313Z,326.25
2019-04-24T16:43:17.984Z,326.25
2019-04-24T16:46:35.080Z,326.25
2019-04-24T16:49:02.760Z,331.88
2019-04-24T16:52:08.714Z,348.75
2019-04-24T16:54:05.852Z,365.63
2019-04-24T16:55:02.557Z,371.25
2019-04-24T16:55:53.947Z,382.50
2019-04-24T16:58:13.517Z,382.50
2019-04-24T17:00:14.247Z,382.50
2019-04-24T17:02:03.684Z,382.50
2019-04-24T17:03:12.698Z,382.50
2019-04-24T17:04:24.137Z,382.50
2019-04-24T17:06:12.354Z,376.88
2019-04-24T17:08:11.070Z,371.25
2019-04-24T17:09:11.302Z,365.63
2019-04-24T17:10:05.287Z,360.00
2019-04-24T17:11:09.948Z,354.38
2019-04-24T17:12:02.099Z,365.63
2019-04-24T17:13:20.555Z,382.50
2019-04-24T17:14:10.688Z,371.25
2019-04-24T17:14:56.479Z,348.75
2019-04-24T17:16:06.897Z,343.13
2019-04-24T17:19:14.326Z,320.63
2019-04-24T17:23:00.855Z,298.13
2019-04-24T17:25:04.211Z,292.50
2019-04-24T17:26:07.472Z,286.88
2019-04-24T17:27:07.149Z,286.88
2019-04-24T17:29:07.062Z,281.25
2019-04-24T17:32:04.129Z,208.13
2019-04-24T17:36:06.716Z,157.50
2019-04-24T17:36:31.817Z,151.88
2019-04-24T17:37:31.696Z,146.25
2019-04-24T17:38:31.653Z,140.63
2019-04-24T17:39:31.634Z,135.00
2019-04-24T17:40:31.617Z,135.00
2019-04-24T17:41:38.833Z,129.38
2019-04-24T17:42:47.700Z,129.38
2019-04-24T17:44:10.569Z,123.75
2019-04-24T17:46:04.721Z,112.50
2019-04-24T17:47:12.756Z,112.50
2019-04-24T17:48:02.811Z,106.88
2019-04-24T17:49:09.242Z,106.88
2019-04-24T17:50:14.852Z,101.25
2019-04-24T17:51:04.634Z,95.63
2019-04-24T17:52:02.770Z,95.63
2019-04-24T17:53:08.250Z,95.63
2019-04-24T17:54:05.081Z,90.00